createdAt,value
2019-04-03T00:01:49.019Z,27.53
2019-04-03T00:04:18.958Z,33.40
2019-04-03T00:06:49.107Z,26.40
2019-04-03T00:09:18.941Z,25.90
2019-04-03T00:11:49.163Z,28.60
2019-04-03T00:14:19.052Z,28.00
2019-04-03T00:16:49.022Z,28.30
2019-04-03T00:19:18.676Z,27.63
2019-04-03T00:21:50.632Z,49.88
2019-04-03T00:24:22.595Z,28.53
2019-04-03T00:26:53.110Z,27.70
2019-04-03T00:29:23.970Z,30.80
2019-04-03T00:31:53.981Z,27.20
2019-04-03T00:34:23.986Z,27.53
2019-04-03T00:36:55.083Z,27.23
2019-04-03T00:39:24.971Z,27.17
2019-04-03T00:41:55.119Z,30.40
2019-04-03T00:44:25.187Z,28.47
2019-04-03T00:46:55.728Z,29.83
2019-04-03T00:49:26.453Z,30.97
2019-04-03T00:51:57.512Z,31.47
2019-04-03T00:54:30.554Z,29.17
2019-04-03T00:56:59.345Z,27.53
2019-04-03T00:59:28.983Z,29.23
2019-04-03T01:01:58.891Z,29.00
2019-04-03T01:04:29.101Z,26.63
2019-04-03T01:06:59.322Z,28.27
2019-04-03T01:09:29.805Z,29.33
2019-04-03T01:12:00.846Z,26.83
2019-04-03T01:14:31.629Z,30.13
2019-04-03T01:17:03.770Z,28.07
2019-04-03T01:19:33.179Z,28.70
2019-04-03T01:22:02.895Z,30.90
2019-04-03T01:24:32.598Z,28.53
2019-04-03T01:27:02.322Z,27.00
2019-04-03T01:29:31.983Z,27.97
2019-04-03T01:32:01.635Z,28.33
2019-04-03T01:34:32.330Z,27.47
2019-04-03T01:37:02.384Z,30.10
2019-04-03T01:39:32.055Z,27.50
2019-04-03T01:42:02.033Z,29.50
2019-04-03T01:44:31.912Z,27.63
2019-04-03T01:47:01.582Z,26.67
2019-04-03T01:49:31.373Z,26.70
2019-04-03T01:52:01.496Z,29.40
2019-04-03T01:54:33.051Z,26.57
2019-04-03T01:57:06.008Z,29.87
2019-04-03T01:59:37.590Z,27.07
2019-04-03T02:02:08.533Z,28.20
2019-04-03T02:04:38.850Z,31.37
2019-04-03T02:07:08.931Z,30.90
2019-04-03T02:09:38.633Z,30.97
2019-04-03T02:12:08.545Z,30.47
2019-04-03T02:14:38.234Z,29.80
2019-04-03T02:17:07.937Z,29.33
2019-04-03T02:19:37.939Z,31.20
2019-04-03T02:22:07.847Z,28.57
2019-04-03T02:24:37.796Z,32.07
2019-04-03T02:27:07.463Z,30.73
2019-04-03T02:29:39.284Z,29.03
2019-04-03T02:32:08.515Z,33.83
2019-04-03T02:34:39.494Z,31.50
2019-04-03T02:37:09.231Z,30.90
2019-04-03T02:39:39.054Z,33.90
2019-04-03T02:42:09.845Z,35.73
2019-04-03T02:44:39.953Z,31.67
2019-04-03T02:47:10.429Z,33.13
2019-04-03T02:49:42.897Z,33.90
2019-04-03T02:52:12.257Z,31.63
2019-04-03T02:54:42.414Z,34.17
2019-04-03T02:57:12.204Z,34.00
2019-04-03T02:59:42.025Z,34.23
2019-04-03T03:02:13.479Z,37.37
2019-04-03T03:04:43.426Z,35.77
2019-04-03T03:07:13.299Z,34.30
2019-04-03T03:09:45.556Z,37.47
2019-04-03T03:12:14.911Z,33.63
2019-04-03T03:14:45.052Z,34.17
2019-04-03T03:17:16.602Z,39.60
2019-04-03T03:19:48.183Z,34.93
2019-04-03T03:22:19.072Z,34.53
2019-04-03T03:24:49.138Z,36.93
2019-04-03T03:27:19.231Z,36.63
2019-04-03T03:29:49.040Z,34.87
2019-04-03T03:32:28.920Z,37.37
2019-04-03T03:35:02.067Z,37.70
2019-04-03T03:37:23.801Z,38.40
2019-04-03T03:39:54.997Z,37.67
2019-04-03T03:42:25.047Z,34.57
2019-04-03T03:44:55.912Z,36.53
2019-04-03T03:47:26.038Z,35.43
2019-04-03T03:49:56.210Z,35.70
2019-04-03T03:52:26.484Z,35.33
2019-04-03T03:54:56.360Z,36.40
2019-04-03T03:57:27.225Z,34.60
2019-04-03T03:59:57.185Z,37.87
2019-04-03T04:02:27.211Z,34.43
2019-04-03T04:04:57.348Z,38.70
2019-04-03T04:07:27.131Z,34.07
2019-04-03T04:09:57.327Z,34.17
2019-04-03T04:12:27.614Z,33.30
2019-04-03T04:14:57.982Z,35.43
2019-04-03T04:17:28.275Z,34.33
2019-04-03T04:20:03.051Z,39.63
2019-04-03T04:22:30.294Z,38.27
2019-04-03T04:25:04.007Z,36.03
2019-04-03T04:27:37.859Z,36.00
2019-04-03T04:30:06.178Z,36.20
2019-04-03T04:32:35.943Z,34.60
2019-04-03T04:35:05.935Z,38.80
2019-04-03T04:37:35.574Z,38.77
2019-04-03T04:40:05.722Z,35.23
2019-04-03T04:42:35.961Z,34.97
2019-04-03T04:45:06.252Z,34.00
2019-04-03T04:47:35.967Z,35.23
2019-04-03T04:50:06.415Z,36.70
2019-04-03T04:52:36.754Z,36.10
2019-04-03T04:55:07.415Z,36.60
2019-04-03T04:57:40.248Z,35.50
2019-04-03T05:00:09.896Z,37.63
2019-04-03T05:02:39.536Z,34.97
2019-04-03T05:05:09.638Z,37.10
2019-04-03T05:07:39.371Z,36.27
2019-04-03T05:10:09.511Z,32.80
2019-04-03T05:12:42.300Z,36.67
2019-04-03T05:15:10.891Z,35.27
2019-04-03T05:17:40.718Z,34.67
2019-04-03T05:20:12.130Z,34.40
2019-04-03T05:22:41.848Z,35.93
2019-04-03T05:25:11.816Z,34.80
2019-04-03T05:27:41.460Z,32.53
2019-04-03T05:30:11.659Z,33.60
2019-04-03T05:32:41.638Z,34.27
2019-04-03T05:35:14.594Z,32.43
2019-04-03T05:37:44.374Z,31.40
2019-04-03T05:40:14.014Z,32.77
2019-04-03T05:42:44.046Z,29.90
2019-04-03T05:45:14.039Z,31.90
2019-04-03T05:47:44.784Z,32.87
2019-04-03T05:50:14.675Z,32.67
2019-04-03T05:52:44.339Z,35.80
2019-04-03T05:55:14.464Z,31.90
2019-04-03T05:57:45.779Z,31.13
2019-04-03T06:00:16.410Z,30.60
2019-04-03T06:02:46.267Z,32.23
2019-04-03T06:05:19.133Z,30.93
2019-04-03T06:07:49.655Z,31.70
2019-04-03T06:10:19.344Z,30.60
2019-04-03T06:12:49.371Z,31.47
2019-04-03T06:15:21.704Z,32.73
2019-04-03T06:17:51.278Z,32.87
2019-04-03T06:20:22.616Z,28.47
2019-04-03T06:22:52.326Z,28.27
2019-04-03T06:25:23.517Z,27.77
2019-04-03T06:27:53.264Z,31.00
2019-04-03T06:30:24.916Z,28.87
2019-04-03T06:32:55.422Z,32.93
2019-04-03T06:35:26.396Z,29.70
2019-04-03T06:37:56.331Z,29.00
2019-04-03T06:40:25.973Z,29.30
2019-04-03T06:42:55.627Z,27.67
2019-04-03T06:45:26.457Z,29.43
2019-04-03T06:47:57.021Z,26.63
2019-04-03T06:50:26.871Z,27.67
2019-04-03T06:52:56.590Z,27.07
2019-04-03T06:55:26.232Z,28.70
2019-04-03T06:57:55.954Z,26.97
2019-04-03T07:00:25.881Z,30.33
2019-04-03T07:02:55.641Z,28.63
2019-04-03T07:05:27.549Z,30.37
2019-04-03T07:07:57.604Z,28.70
2019-04-03T07:10:28.659Z,26.63
2019-04-03T07:12:59.960Z,27.83
2019-04-03T07:15:30.497Z,27.40
2019-04-03T07:18:01.869Z,25.40
2019-04-03T07:20:32.951Z,28.40
2019-04-03T07:23:03.146Z,28.30
2019-04-03T07:25:33.857Z,26.90
2019-04-03T07:28:04.255Z,25.67
2019-04-03T07:30:34.006Z,26.00
2019-04-03T07:33:05.787Z,26.53
2019-04-03T07:35:35.764Z,27.30
2019-04-03T07:38:05.960Z,25.60
2019-04-03T07:40:35.711Z,27.93
2019-04-03T07:43:05.423Z,28.70
2019-04-03T07:45:36.410Z,26.53
2019-04-03T07:48:06.985Z,26.30
2019-04-03T07:50:37.242Z,25.57
2019-04-03T07:53:07.029Z,26.97
2019-04-03T07:55:37.117Z,25.30
2019-04-03T07:58:07.303Z,24.67
2019-04-03T08:00:38.514Z,24.83
2019-04-03T08:03:08.504Z,24.83
2019-04-03T08:05:38.155Z,24.10
2019-04-03T08:08:07.875Z,27.13
2019-04-03T08:10:37.925Z,25.20
2019-04-03T08:13:07.871Z,22.43
2019-04-03T08:15:37.607Z,25.50
2019-04-03T08:18:07.396Z,25.50
2019-04-03T08:20:37.125Z,24.03
2019-04-03T08:23:06.870Z,26.50
2019-04-03T08:25:37.887Z,25.87
2019-04-03T08:28:07.599Z,24.53
2019-04-03T08:30:39.643Z,26.53
2019-04-03T08:33:15.837Z,26.67
2019-04-03T08:35:41.033Z,28.23
2019-04-03T08:38:12.403Z,29.70
2019-04-03T08:40:42.110Z,28.70
2019-04-03T08:43:11.896Z,28.23
2019-04-03T08:45:41.623Z,27.60
2019-04-03T08:48:11.587Z,26.37
2019-04-03T08:50:41.348Z,27.43
2019-04-03T08:53:12.098Z,30.10
2019-04-03T08:55:41.800Z,27.20
2019-04-03T08:58:11.468Z,30.20
2019-04-03T09:00:41.150Z,30.27
2019-04-03T09:03:13.932Z,30.77
2019-04-03T09:05:42.335Z,33.37
2019-04-03T09:08:12.322Z,31.53
2019-04-03T09:10:42.509Z,30.73
2019-04-03T09:13:17.328Z,31.53
2019-04-03T09:15:44.133Z,34.17
2019-04-03T09:18:13.997Z,37.80
2019-04-03T09:20:44.230Z,37.67
2019-04-03T09:23:14.255Z,39.97
2019-04-03T09:25:43.979Z,39.47
2019-04-03T09:28:13.800Z,39.27
2019-04-03T09:30:46.832Z,42.97
2019-04-03T09:33:15.568Z,39.43
2019-04-03T09:35:45.354Z,40.33
2019-04-03T09:38:15.220Z,41.47
2019-04-03T09:40:47.226Z,39.27
2019-04-03T09:43:16.486Z,42.50
2019-04-03T09:45:46.140Z,43.03
2019-04-03T09:48:16.426Z,40.87
2019-04-03T09:50:47.240Z,43.97
2019-04-03T09:53:17.111Z,41.07
2019-04-03T09:55:46.935Z,40.63
2019-04-03T09:58:16.933Z,41.37
2019-04-03T10:00:46.833Z,45.07
2019-04-03T10:03:16.479Z,42.43
2019-04-03T10:05:46.444Z,40.60
2019-04-03T10:08:16.115Z,45.77
2019-04-03T10:10:47.084Z,40.40
2019-04-03T10:13:17.187Z,40.83
2019-04-03T10:15:47.039Z,43.60
2019-04-03T10:18:16.779Z,42.03
2019-04-03T10:20:48.802Z,44.83
2019-04-03T10:23:18.042Z,48.67
2019-04-03T10:25:48.043Z,50.37
2019-04-03T10:28:17.692Z,44.43
2019-04-03T10:30:47.411Z,44.60
2019-04-03T10:33:17.107Z,45.10
2019-04-03T10:35:47.431Z,42.63
2019-04-03T10:38:18.291Z,39.07
2019-04-03T10:40:49.012Z,41.10
2019-04-03T10:43:19.068Z,39.30
2019-04-03T10:45:48.831Z,44.80
2019-04-03T10:48:18.797Z,37.20
2019-04-03T10:50:48.867Z,41.77
2019-04-03T10:53:20.034Z,40.33
2019-04-03T10:55:50.154Z,39.57
2019-04-03T10:58:21.245Z,37.27
2019-04-03T11:00:51.160Z,42.17
2019-04-03T11:03:20.863Z,40.60
2019-04-03T11:05:50.639Z,40.47
2019-04-03T11:08:20.342Z,43.63
2019-04-03T11:10:50.095Z,42.60
2019-04-03T11:13:20.124Z,42.67
2019-04-03T11:15:50.406Z,43.17
2019-04-03T11:18:21.112Z,42.70
2019-04-03T11:20:51.450Z,41.43
2019-04-03T11:23:35.743Z,44.53
2019-04-03T11:25:52.708Z,39.90
2019-04-03T11:28:23.887Z,47.73
2019-04-03T11:30:55.843Z,40.53
2019-04-03T11:33:25.689Z,43.43
2019-04-03T11:35:55.512Z,43.60
2019-04-03T11:38:28.232Z,43.33
2019-04-03T11:40:57.375Z,40.60
2019-04-03T11:43:27.514Z,38.97
2019-04-03T11:45:58.116Z,41.23
2019-04-03T11:48:27.947Z,41.77
2019-04-03T11:50:58.100Z,39.17
2019-04-03T11:53:28.185Z,40.47
2019-04-03T11:55:57.959Z,41.37
2019-04-03T11:58:27.663Z,43.97
2019-04-03T12:00:57.516Z,45.43
2019-04-03T12:03:27.521Z,44.13
2019-04-03T12:05:57.357Z,47.47
2019-04-03T12:08:28.174Z,43.53
2019-04-03T12:10:58.982Z,42.23
2019-04-03T12:13:28.619Z,42.87
2019-04-03T12:15:58.859Z,35.37
2019-04-03T12:18:28.731Z,37.67
2019-04-03T12:20:58.714Z,40.90
2019-04-03T12:23:28.367Z,40.77
2019-04-03T12:25:58.112Z,40.63
2019-04-03T12:28:27.911Z,40.47
2019-04-03T12:30:57.611Z,41.30
2019-04-03T12:33:27.559Z,45.43
2019-04-03T12:35:57.743Z,48.63
2019-04-03T12:38:27.458Z,45.00
2019-04-03T12:40:57.123Z,43.00
2019-04-03T12:43:26.862Z,43.67
2019-04-03T12:45:59.109Z,43.93
2019-04-03T12:48:28.487Z,43.50
2019-04-03T12:51:00.166Z,46.73
2019-04-03T12:53:31.273Z,41.87
2019-04-03T12:56:01.033Z,40.90
2019-04-03T12:58:31.097Z,42.17
2019-04-03T13:01:01.378Z,42.97
2019-04-03T13:03:32.118Z,42.43
2019-04-03T13:06:01.869Z,40.83
2019-04-03T13:08:31.666Z,45.70
2019-04-03T13:11:01.686Z,43.80
2019-04-03T13:13:31.467Z,44.43
2019-04-03T13:16:01.548Z,42.33
2019-04-03T13:18:31.343Z,47.60
2019-04-03T13:21:01.176Z,44.03
2019-04-03T13:23:31.294Z,44.00
2019-04-03T13:26:02.050Z,44.27
2019-04-03T13:28:33.467Z,42.97
2019-04-03T13:31:03.600Z,43.37
2019-04-03T13:33:33.650Z,44.23
2019-04-03T13:36:03.458Z,43.60
2019-04-03T13:38:33.679Z,42.73
2019-04-03T13:41:05.674Z,43.80
2019-04-03T13:43:35.754Z,41.63
2019-04-03T13:46:05.844Z,43.13
2019-04-03T13:48:36.208Z,36.87
2019-04-03T13:51:06.272Z,39.97
2019-04-03T13:53:37.046Z,40.07
2019-04-03T13:56:10.254Z,37.07
2019-04-03T13:58:38.401Z,37.97
2019-04-03T14:01:09.528Z,38.93
2019-04-03T14:03:39.802Z,40.23
2019-04-03T14:06:09.623Z,36.17
2019-04-03T14:08:39.330Z,40.97
2019-04-03T14:11:09.656Z,36.30
2019-04-03T14:13:42.609Z,35.77
2019-04-03T14:16:20.282Z,32.73
2019-04-03T14:18:42.377Z,34.23
2019-04-03T14:21:12.866Z,33.33
2019-04-03T14:23:44.235Z,38.70
2019-04-03T14:26:14.722Z,35.13
2019-04-03T14:28:45.347Z,34.03
2019-04-03T14:31:17.066Z,34.70
2019-04-03T14:33:47.161Z,34.07
2019-04-03T14:36:19.247Z,29.17
2019-04-03T14:38:49.096Z,29.27
2019-04-03T14:41:19.322Z,29.10
2019-04-03T14:43:49.930Z,28.00
2019-04-03T14:46:19.620Z,30.27
2019-04-03T14:48:49.579Z,31.20
2019-04-03T14:51:19.454Z,31.13
2019-04-03T14:53:51.510Z,63.77
2019-04-03T14:56:20.735Z,34.90
2019-04-03T14:58:50.519Z,33.00
2019-04-03T15:01:20.903Z,32.30
2019-04-03T15:03:50.958Z,31.37
2019-04-03T15:06:20.914Z,31.83
2019-04-03T15:08:53.875Z,30.83
2019-04-03T15:11:22.527Z,30.50
2019-04-03T15:13:52.163Z,27.10
2019-04-03T15:16:22.120Z,24.00
2019-04-03T15:18:51.870Z,24.23
2019-04-03T15:21:23.746Z,26.33
2019-04-03T15:23:53.014Z,27.27
2019-04-03T15:26:23.068Z,25.63
2019-04-03T15:28:52.795Z,32.90
2019-04-03T15:31:24.040Z,27.50
2019-04-03T15:33:55.782Z,25.17
2019-04-03T15:36:26.222Z,23.00
2019-04-03T15:38:58.656Z,24.33
2019-04-03T15:41:31.119Z,26.20
2019-04-03T15:44:00.551Z,23.20
2019-04-03T15:46:33.993Z,21.37
2019-04-03T15:49:02.107Z,22.53
2019-04-03T15:51:32.127Z,21.60
2019-04-03T15:54:02.227Z,24.30
2019-04-03T15:56:32.249Z,23.67
2019-04-03T15:59:02.018Z,20.97
2019-04-03T16:01:32.290Z,20.00
2019-04-03T16:04:02.097Z,18.93
2019-04-03T16:06:34.785Z,17.77
2019-04-03T16:09:05.244Z,17.13
2019-04-03T16:11:35.036Z,17.73
2019-04-03T16:14:05.136Z,15.97
2019-04-03T16:16:34.904Z,17.70
2019-04-03T16:19:04.796Z,19.00
2019-04-03T16:21:46.945Z,18.57
2019-04-03T16:24:16.832Z,18.97
2019-04-03T16:26:46.540Z,21.23
2019-04-03T16:29:16.564Z,23.47
2019-04-03T16:31:46.623Z,23.67
2019-04-03T16:34:16.415Z,22.47
2019-04-03T16:36:49.167Z,21.13
2019-04-03T16:39:18.510Z,24.40
2019-04-03T16:41:48.483Z,23.77
2019-04-03T16:44:18.344Z,21.57
2019-04-03T16:46:48.106Z,23.07
2019-04-03T16:49:17.754Z,22.10
2019-04-03T16:51:47.426Z,22.53
2019-04-03T16:54:17.071Z,23.20
2019-04-03T16:56:48.471Z,24.17
2019-04-03T16:59:18.160Z,23.63
2019-04-03T17:01:48.535Z,24.20
2019-04-03T17:04:26.069Z,25.33
2019-04-03T17:06:49.852Z,25.33
2019-04-03T17:09:19.631Z,27.70
2019-04-03T17:11:50.196Z,26.77
2019-04-03T17:14:23.300Z,29.27
2019-04-03T17:16:54.106Z,30.77
2019-04-03T17:19:24.707Z,31.63
2019-04-03T17:21:56.027Z,30.30
2019-04-03T17:24:43.637Z,33.63
2019-04-03T17:27:09.298Z,34.87
2019-04-03T17:29:40.444Z,34.27
2019-04-03T17:32:11.622Z,40.47
2019-04-03T17:34:43.113Z,37.53
2019-04-03T17:37:13.738Z,39.00
2019-04-03T17:39:43.835Z,39.97
2019-04-03T17:42:13.835Z,42.43
2019-04-03T17:44:44.820Z,42.83
2019-04-03T17:47:15.442Z,43.47
2019-04-03T17:49:45.271Z,44.60
2019-04-03T17:52:15.268Z,43.80
2019-04-03T17:54:45.239Z,43.50
2019-04-03T17:57:17.417Z,48.77
2019-04-03T17:59:48.846Z,48.27
2019-04-03T18:02:17.949Z,42.20
2019-04-03T18:04:48.930Z,43.00
2019-04-03T18:07:19.413Z,45.37
2019-04-03T18:09:49.142Z,43.47
2019-04-03T18:12:21.778Z,42.10
2019-04-03T18:14:50.265Z,49.50
2019-04-03T18:17:19.912Z,49.20
2019-04-03T18:19:49.551Z,47.97
2019-04-03T18:22:20.742Z,48.93
2019-04-03T18:24:51.840Z,48.20
2019-04-03T18:27:22.155Z,45.87
2019-04-03T18:29:51.795Z,47.10
2019-04-03T18:32:21.442Z,45.07
2019-04-03T18:34:53.050Z,47.70
2019-04-03T18:37:22.463Z,46.37
2019-04-03T18:39:52.482Z,43.53
2019-04-03T18:42:22.391Z,44.83
2019-04-03T18:44:52.048Z,45.73
2019-04-03T18:47:21.702Z,45.00
2019-04-03T18:49:51.400Z,46.20
2019-04-03T18:52:21.171Z,41.07
2019-04-03T18:54:50.871Z,42.93
2019-04-03T18:57:20.662Z,45.43
2019-04-03T18:59:50.337Z,46.17
2019-04-03T19:02:20.079Z,48.80
2019-04-03T19:05:01.100Z,67.47
2019-04-03T19:07:21.503Z,53.90
2019-04-03T19:09:51.793Z,47.23
2019-04-03T19:12:34.657Z,49.93
2019-04-03T19:14:53.579Z,49.70
2019-04-03T19:17:24.809Z,52.33
2019-04-03T19:20:09.450Z,45.83
2019-04-03T19:22:26.353Z,50.40
2019-04-03T19:24:58.751Z,50.20
2019-04-03T19:27:28.638Z,49.27
2019-04-03T19:29:58.365Z,46.27
2019-04-03T19:32:28.359Z,46.20
2019-04-03T19:34:58.432Z,45.43
2019-04-03T19:37:28.205Z,41.67
2019-04-03T19:39:57.919Z,45.83
2019-04-03T19:42:27.570Z,48.80
2019-04-03T19:44:57.210Z,53.70
2019-04-03T19:47:26.854Z,52.93
2019-04-03T19:49:59.972Z,53.13
2019-04-03T19:52:27.847Z,49.43
2019-04-03T19:54:58.879Z,52.73
2019-04-03T19:57:28.531Z,49.17
2019-04-03T19:59:58.172Z,56.77
2019-04-03T20:02:27.827Z,54.67
2019-04-03T20:04:57.745Z,52.47
2019-04-03T20:07:27.398Z,59.43
2019-04-03T20:09:57.035Z,53.10
2019-04-03T20:12:26.688Z,59.00
2019-04-03T20:14:58.359Z,54.23
2019-04-03T20:17:27.756Z,58.38
2019-04-03T20:19:58.402Z,51.00
2019-04-03T20:22:28.121Z,55.73
2019-04-03T20:25:00.132Z,56.80
2019-04-03T20:27:29.546Z,53.03
2019-04-03T20:30:00.885Z,47.80
2019-04-03T20:32:31.027Z,52.33
2019-04-03T20:35:00.743Z,50.37
2019-04-03T20:37:30.404Z,50.97
2019-04-03T20:40:00.610Z,56.30
2019-04-03T20:42:30.262Z,55.40
2019-04-03T20:44:59.920Z,73.10
2019-04-03T20:47:29.812Z,62.93
2019-04-03T20:49:59.469Z,62.10
2019-04-03T20:52:29.174Z,62.87
2019-04-03T20:54:59.084Z,64.13
2019-04-03T20:57:28.848Z,68.07
2019-04-03T21:00:02.851Z,72.83
2019-04-03T21:02:30.019Z,69.17
2019-04-03T21:04:59.714Z,64.80
2019-04-03T21:07:29.427Z,66.47
2019-04-03T21:10:01.010Z,68.73
2019-04-03T21:12:31.056Z,63.93
2019-04-03T21:15:08.188Z,65.93
2019-04-03T21:17:32.271Z,65.67
2019-04-03T21:20:02.581Z,67.63
2019-04-03T21:22:32.260Z,67.37
2019-04-03T21:25:04.903Z,72.13
2019-04-03T21:27:33.970Z,69.30
2019-04-03T21:30:03.914Z,72.57
2019-04-03T21:32:33.619Z,72.70
2019-04-03T21:35:04.319Z,77.03
2019-04-03T21:37:34.266Z,76.50
2019-04-03T21:40:05.298Z,76.30
2019-04-03T21:42:35.326Z,72.07
2019-04-03T21:45:07.565Z,78.33
2019-04-03T21:47:36.796Z,85.13
2019-04-03T21:50:06.932Z,91.27
2019-04-03T21:52:36.711Z,74.63
2019-04-03T21:55:07.143Z,79.60
2019-04-03T21:57:38.666Z,76.40
2019-04-03T22:00:13.079Z,73.77
2019-04-03T22:02:44.986Z,78.63
2019-04-03T22:05:14.393Z,71.93
2019-04-03T22:07:44.114Z,78.47
2019-04-03T22:10:15.174Z,77.20
2019-04-03T22:12:44.964Z,78.50
2019-04-03T22:15:14.716Z,76.40
2019-04-03T22:17:44.675Z,81.93
2019-04-03T22:20:14.450Z,81.07
2019-04-03T22:22:44.347Z,84.50
2019-04-03T22:25:14.236Z,76.73
2019-04-03T22:27:43.876Z,85.53
2019-04-03T22:30:13.665Z,84.87
2019-04-03T22:32:43.342Z,83.33
2019-04-03T22:35:13.911Z,84.40
2019-04-03T22:37:43.591Z,81.87
2019-04-03T22:40:14.514Z,82.83
2019-04-03T22:42:45.527Z,77.23
2019-04-03T22:45:16.024Z,76.30
2019-04-03T22:47:47.584Z,81.93
2019-04-03T22:50:16.927Z,82.07
2019-04-03T22:52:46.665Z,78.27
2019-04-03T22:55:16.362Z,84.13
2019-04-03T22:57:45.978Z,83.93
2019-04-03T23:00:16.256Z,82.87
2019-04-03T23:02:45.892Z,82.83
2019-04-03T23:05:17.175Z,85.87
2019-04-03T23:07:47.111Z,83.60
2019-04-03T23:10:16.752Z,81.50
2019-04-03T23:12:46.466Z,85.50
2019-04-03T23:15:16.098Z,86.90
2019-04-03T23:17:46.044Z,81.20
2019-04-03T23:20:16.130Z,80.83
2019-04-03T23:22:45.783Z,80.10
2019-04-03T23:25:15.666Z,81.93
2019-04-03T23:27:45.606Z,79.57
2019-04-03T23:30:15.634Z,79.83
2019-04-03T23:32:46.158Z,84.93
2019-04-03T23:35:20.370Z,81.23
2019-04-03T23:37:48.835Z,81.27
2019-04-03T23:40:19.523Z,85.93
2019-04-03T23:42:49.171Z,71.80
2019-04-03T23:45:19.872Z,72.40
2019-04-03T23:47:49.583Z,72.83
2019-04-03T23:50:20.001Z,75.90
2019-04-03T23:52:50.898Z,74.27
2019-04-03T23:55:20.834Z,79.30
2019-04-03T23:57:50.624Z,76.27
